Главная страница
METAR-TAF:

METAR-TAF

Аэропорты :

Николаев, Украина

широта: 47-03-29N, долгота: 031-55-15E, высота над уровнем моря: 56 м

Текущие метеонаблюдения

Эта сводка был подготовлена 46 минут назад, в 17:00 UTC
Ветер 10 Узел от северо-западный
Температура 16°C
Влажность 45%
Давление 1012 hPa
Видимость 10 км и более
Нет облачности ниже 1500 м, и нет кучево-дождевой облачности

METAR: UKON 281700Z 32005MPS CAVOK 16/04 Q1012 NOSIG

Время: 20:46 (17:46 UTC)

Прогноз

Эта сводка был подготовлена 3 часа и 44 минут назад, в 14:02 UTC
Прогноз действительный с 28-го 15 UTC до 28-го 24 UTC
Ветер 23 Узел от северо-западный с порывами до 37 Узел
Видимость 10 км и более
Отдельные облака на высоте 3000 фута
изменения
С 28-го 19 UTC до 28-го 21 UTC
Ветер 10 Узел от северо-западный с порывами до 21 Узел

TAF: UKON 281402Z 2815/2824 31012G19MPS 9999 SCT030 BECMG 2819/2821 32005G11MPS

Метеонаблюдения и прогнозы для более 4000 аэропортов (сводки METAR и TAF).

Имеющиеся станции представлены на карте желтыми и красными точками.

Чтобы увидеть название станции, наведите на нее мышь.

Затем щелкните, чтобы увидеть метеонаблюдения и метеопрогнозы.

Управление картой: чтобы увеличить масштаб, щелкните зеленые кнопки с черным крестиком; чтобы уменьшить масштаб, щелкните зеленую кнопку с тире; для просмотра соседних карт щелкайте зеленые стрелки.


METAR-TAF: